createdAt,value
2023-01-21T00:01:08.826Z,16.10
2023-01-21T00:03:37.783Z,19.20
2023-01-21T00:06:05.812Z,17.23
2023-01-21T00:08:33.353Z,18.17
2023-01-21T00:11:05.726Z,16.13
2023-01-21T00:13:34.670Z,17.97
2023-01-21T00:16:02.393Z,17.60
2023-01-21T00:18:30.235Z,16.47
2023-01-21T00:20:59.087Z,17.23
2023-01-21T00:23:26.968Z,15.10
2023-01-21T00:25:58.581Z,16.20
2023-01-21T00:28:28.254Z,15.53
2023-01-21T00:30:58.093Z,16.63
2023-01-21T00:33:25.716Z,13.03
2023-01-21T00:36:00.415Z,15.27
2023-01-21T00:38:28.335Z,15.37
2023-01-21T00:41:00.856Z,15.77
2023-01-21T00:43:28.552Z,16.87
2023-01-21T00:45:56.076Z,15.97
2023-01-21T00:48:23.956Z,16.67
2023-01-21T00:50:52.129Z,15.93
2023-01-21T00:53:21.040Z,16.07
2023-01-21T00:55:48.517Z,14.83
2023-01-21T00:58:16.042Z,14.67
2023-01-21T01:00:43.653Z,11.43
2023-01-21T01:03:11.276Z,14.43
2023-01-21T01:05:38.757Z,15.20
2023-01-21T01:08:06.450Z,13.47
2023-01-21T01:10:38.133Z,13.97
2023-01-21T01:13:05.621Z,15.60
2023-01-21T01:15:33.157Z,14.53
2023-01-21T01:18:00.626Z,13.73
2023-01-21T01:20:28.239Z,11.20
2023-01-21T01:22:55.756Z,15.43
2023-01-21T01:25:23.238Z,14.77
2023-01-21T01:27:52.061Z,13.13
2023-01-21T01:30:19.701Z,12.63
2023-01-21T01:32:47.180Z,12.57
2023-01-21T01:35:14.842Z,12.77
2023-01-21T01:37:42.316Z,10.20
2023-01-21T01:40:11.151Z,11.67
2023-01-21T01:42:38.698Z,13.10
2023-01-21T01:45:16.773Z,12.80
2023-01-21T01:47:49.627Z,14.70
2023-01-21T01:50:20.774Z,15.17
2023-01-21T01:52:48.565Z,14.47
2023-01-21T01:55:16.312Z,12.73
2023-01-21T01:57:48.861Z,14.93
2023-01-21T02:00:19.346Z,15.07
2023-01-21T02:03:07.525Z,13.53
2023-01-21T02:05:37.634Z,13.60
2023-01-21T02:08:05.266Z,14.47
2023-01-21T02:10:34.391Z,14.37
2023-01-21T02:13:02.682Z,13.37
2023-01-21T02:15:37.226Z,13.53
2023-01-21T02:18:18.597Z,15.57
2023-01-21T02:21:17.279Z,14.57
2023-01-21T02:24:10.507Z,15.50
2023-01-21T02:27:01.054Z,12.87
2023-01-21T02:30:08.247Z,13.00
2023-01-21T02:33:10.757Z,13.50
2023-01-21T02:35:44.032Z,13.07
2023-01-21T02:38:19.814Z,11.83
2023-01-21T02:40:56.938Z,15.03
2023-01-21T02:43:32.926Z,14.10
2023-01-21T02:46:06.981Z,14.87
2023-01-21T02:48:41.534Z,12.27
2023-01-21T02:51:09.222Z,12.57
2023-01-21T02:53:37.543Z,15.63
2023-01-21T02:56:09.771Z,13.83
2023-01-21T02:58:40.951Z,12.83
2023-01-21T03:01:23.110Z,13.53
2023-01-21T03:04:27.123Z,13.67
2023-01-21T03:07:04.340Z,13.27
2023-01-21T03:09:33.988Z,13.70
2023-01-21T03:12:10.566Z,14.20
2023-01-21T03:15:03.124Z,15.40
2023-01-21T03:17:37.015Z,12.77
2023-01-21T03:20:11.928Z,14.70
2023-01-21T03:22:40.754Z,13.53
2023-01-21T03:25:10.594Z,12.80
2023-01-21T03:27:42.082Z,12.67
2023-01-21T03:30:14.365Z,11.87
2023-01-21T03:32:44.616Z,13.27
2023-01-21T03:35:17.395Z,10.37
2023-01-21T03:37:50.352Z,11.93
2023-01-21T03:40:22.834Z,14.33
2023-01-21T03:42:52.587Z,13.63
2023-01-21T03:45:27.597Z,11.60
2023-01-21T03:48:01.278Z,12.47
2023-01-21T03:50:35.537Z,12.27
2023-01-21T03:53:03.156Z,13.17
2023-01-21T03:55:30.637Z,12.13
2023-01-21T03:57:58.123Z,12.00
2023-01-21T04:00:25.669Z,9.83
2023-01-21T04:02:53.191Z,14.53
2023-01-21T04:05:20.676Z,10.90
2023-01-21T04:07:49.485Z,12.43
2023-01-21T04:10:18.142Z,9.37
2023-01-21T04:12:45.848Z,12.23
2023-01-21T04:15:13.526Z,14.10
2023-01-21T04:17:41.004Z,13.03
2023-01-21T04:20:09.894Z,10.63
2023-01-21T04:22:37.567Z,13.50
2023-01-21T04:25:06.942Z,12.63
2023-01-21T04:27:34.441Z,13.47
2023-01-21T04:30:01.938Z,11.70
2023-01-21T04:32:29.440Z,12.73
2023-01-21T04:34:56.953Z,12.37
2023-01-21T04:37:24.437Z,12.37
2023-01-21T04:39:51.990Z,14.70
2023-01-21T04:42:20.857Z,10.70
2023-01-21T04:44:48.500Z,13.30
2023-01-21T04:47:16.049Z,11.07
2023-01-21T04:49:43.514Z,12.20
2023-01-21T04:52:11.010Z,11.73
2023-01-21T04:54:38.529Z,13.00
2023-01-21T04:57:06.007Z,13.37
2023-01-21T04:59:34.846Z,12.33
2023-01-21T05:02:02.351Z,11.60
2023-01-21T05:04:30.010Z,14.27
2023-01-21T05:06:57.493Z,12.60
2023-01-21T05:09:25.036Z,13.53
2023-01-21T05:11:52.513Z,13.03
2023-01-21T05:14:19.981Z,13.03
2023-01-21T05:16:48.877Z,14.53
2023-01-21T05:19:16.387Z,14.47
2023-01-21T05:21:43.858Z,12.63
2023-01-21T05:24:11.469Z,13.50
2023-01-21T05:26:39.079Z,12.43
2023-01-21T05:29:06.599Z,15.50
2023-01-21T05:31:34.207Z,13.13
2023-01-21T05:34:03.049Z,11.47
2023-01-21T05:36:30.664Z,13.87
2023-01-21T05:38:58.353Z,14.23
2023-01-21T05:41:25.990Z,15.30
2023-01-21T05:43:53.650Z,15.13
2023-01-21T05:46:21.215Z,15.50
2023-01-21T05:48:48.859Z,12.90
2023-01-21T05:51:17.740Z,13.37
2023-01-21T05:53:46.265Z,12.97
2023-01-21T05:56:13.748Z,15.67
2023-01-21T05:58:41.242Z,14.50
2023-01-21T06:01:08.763Z,9.53
2023-01-21T06:03:38.039Z,14.23
2023-01-21T06:06:05.978Z,13.73
2023-01-21T06:08:34.927Z,12.57
2023-01-21T06:11:02.418Z,13.33
2023-01-21T06:13:29.940Z,10.67
2023-01-21T06:15:58.162Z,13.30
2023-01-21T06:18:25.679Z,11.67
2023-01-21T06:20:53.197Z,14.13
2023-01-21T06:23:20.685Z,12.37
2023-01-21T06:25:49.490Z,13.17
2023-01-21T06:28:17.003Z,14.90
2023-01-21T06:30:44.640Z,13.43
2023-01-21T06:33:12.196Z,13.50
2023-01-21T06:35:39.689Z,12.87
2023-01-21T06:38:07.161Z,11.53
2023-01-21T06:40:34.682Z,14.23
2023-01-21T06:43:03.533Z,13.67
2023-01-21T06:45:31.071Z,12.07
2023-01-21T06:47:58.609Z,11.40
2023-01-21T06:50:26.275Z,12.13
2023-01-21T06:52:53.798Z,11.70
2023-01-21T06:55:21.424Z,12.33
2023-01-21T06:57:48.887Z,12.37
2023-01-21T07:00:19.643Z,15.57
2023-01-21T07:02:47.403Z,13.57
2023-01-21T07:05:15.704Z,13.83
2023-01-21T07:07:43.389Z,15.10
2023-01-21T07:10:12.335Z,12.80
2023-01-21T07:12:39.842Z,11.73
2023-01-21T07:15:08.904Z,14.47
2023-01-21T07:17:37.724Z,12.87
2023-01-21T07:20:06.024Z,14.00
2023-01-21T07:22:34.414Z,13.40
2023-01-21T07:25:01.926Z,12.90
2023-01-21T07:27:29.437Z,12.50
2023-01-21T07:29:56.958Z,14.77
2023-01-21T07:32:24.432Z,13.63
2023-01-21T07:34:53.238Z,14.53
2023-01-21T07:37:20.780Z,19.87
2023-01-21T07:39:48.299Z,14.20
2023-01-21T07:42:15.779Z,13.60
2023-01-21T07:44:43.308Z,11.97
2023-01-21T07:47:11.005Z,13.77
2023-01-21T07:49:38.569Z,12.17
2023-01-21T07:52:07.581Z,11.17
2023-01-21T07:54:35.093Z,11.70
2023-01-21T07:57:02.605Z,10.73
2023-01-21T07:59:30.082Z,12.33
2023-01-21T08:01:57.987Z,9.23
2023-01-21T08:04:25.748Z,13.43
2023-01-21T08:06:56.892Z,12.03
2023-01-21T08:09:25.934Z,13.13
2023-01-21T08:11:53.451Z,11.60
2023-01-21T08:14:20.941Z,13.00
2023-01-21T08:16:48.428Z,13.30
2023-01-21T08:19:15.912Z,11.73
2023-01-21T08:21:43.384Z,12.67
2023-01-21T08:24:11.383Z,11.83
2023-01-21T08:26:40.301Z,10.30
2023-01-21T08:29:08.201Z,15.10
2023-01-21T08:31:36.142Z,17.70
2023-01-21T08:34:04.009Z,14.23
2023-01-21T08:36:31.572Z,12.93
2023-01-21T08:39:01.793Z,13.83
2023-01-21T08:41:29.404Z,14.40
2023-01-21T08:43:58.248Z,19.77
2023-01-21T08:46:25.873Z,14.90
2023-01-21T08:48:53.334Z,16.10
2023-01-21T08:51:20.917Z,15.87
2023-01-21T08:53:49.931Z,13.93
2023-01-21T08:56:17.494Z,10.83
2023-01-21T08:58:45.169Z,13.87
2023-01-21T09:01:16.191Z,15.30
2023-01-21T09:03:44.178Z,11.87
2023-01-21T09:06:12.146Z,12.40
2023-01-21T09:08:40.374Z,11.17
2023-01-21T09:11:09.182Z,11.50
2023-01-21T09:13:38.864Z,9.00
2023-01-21T09:16:10.134Z,11.97
2023-01-21T09:18:39.033Z,10.53
2023-01-21T09:21:07.835Z,9.13
2023-01-21T09:23:36.717Z,9.63
2023-01-21T09:26:06.450Z,11.73
2023-01-21T09:28:37.525Z,13.73
2023-01-21T09:31:07.924Z,13.60
2023-01-21T09:33:37.564Z,10.37
2023-01-21T09:36:08.688Z,8.20
2023-01-21T09:38:36.225Z,10.47
2023-01-21T09:41:16.268Z,9.53
2023-01-21T09:43:46.877Z,15.37
2023-01-21T09:46:22.323Z,8.60
2023-01-21T09:48:50.536Z,10.70
2023-01-21T09:51:26.528Z,11.90
2023-01-21T09:53:57.719Z,9.63
2023-01-21T09:56:32.236Z,7.80
2023-01-21T09:59:06.993Z,12.43
2023-01-21T10:01:37.929Z,7.60
2023-01-21T10:04:34.149Z,10.80
2023-01-21T10:07:08.436Z,13.10
2023-01-21T10:09:51.859Z,10.53
2023-01-21T10:12:32.522Z,20.87
2023-01-21T10:15:11.228Z,8.97
2023-01-21T10:17:51.873Z,8.97
2023-01-21T10:20:25.350Z,9.87
2023-01-21T10:23:00.222Z,9.17
2023-01-21T10:25:31.601Z,10.30
2023-01-21T10:28:03.348Z,8.40
2023-01-21T10:30:37.436Z,9.43
2023-01-21T10:33:07.876Z,10.70
2023-01-21T10:35:51.644Z,8.67
2023-01-21T10:38:28.667Z,10.37
2023-01-21T10:41:02.981Z,11.13
2023-01-21T10:43:37.402Z,8.13
2023-01-21T10:46:16.266Z,9.50
2023-01-21T10:48:55.487Z,7.53
2023-01-21T10:51:26.899Z,8.33
2023-01-21T10:54:02.828Z,8.00
2023-01-21T10:56:40.931Z,8.33
2023-01-21T10:59:12.152Z,8.80
2023-01-21T11:01:43.332Z,10.20
2023-01-21T11:04:15.390Z,10.37
2023-01-21T11:06:44.920Z,12.13
2023-01-21T11:09:15.887Z,8.80
2023-01-21T11:11:43.376Z,14.80
2023-01-21T11:14:11.076Z,15.00
2023-01-21T11:16:46.519Z,24.20
2023-01-21T11:19:16.027Z,19.57
2023-01-21T11:21:59.052Z,16.30
2023-01-21T11:24:32.570Z,10.90
2023-01-21T11:27:01.515Z,8.70
2023-01-21T11:29:40.844Z,7.37
2023-01-21T11:32:19.014Z,7.20
2023-01-21T11:34:48.336Z,5.53
2023-01-21T11:37:23.670Z,16.53
2023-01-21T11:39:56.452Z,7.33
2023-01-21T11:42:24.834Z,5.80
2023-01-21T11:44:54.245Z,6.27
2023-01-21T11:47:37.948Z,8.20
2023-01-21T11:50:15.313Z,10.83
2023-01-21T11:52:43.017Z,6.47
2023-01-21T11:55:23.159Z,6.50
2023-01-21T11:57:53.899Z,3.73
2023-01-21T12:00:24.503Z,5.37
2023-01-21T12:02:54.765Z,4.90
2023-01-21T12:05:32.307Z,5.40
2023-01-21T12:08:00.845Z,4.47
2023-01-21T12:10:33.194Z,16.23
2023-01-21T12:13:23.533Z,4.73
2023-01-21T12:16:11.599Z,3.97
2023-01-21T12:18:55.777Z,4.47
2023-01-21T12:21:32.448Z,6.83
2023-01-21T12:24:10.944Z,7.00
2023-01-21T12:26:45.407Z,3.87
2023-01-21T12:29:29.101Z,9.90
2023-01-21T12:32:02.081Z,6.43
2023-01-21T12:34:34.174Z,8.47
2023-01-21T12:37:05.769Z,4.97
2023-01-21T12:39:37.311Z,13.63
2023-01-21T12:42:15.163Z,10.47
2023-01-21T12:44:47.332Z,5.10
2023-01-21T12:47:22.865Z,7.30
2023-01-21T12:49:59.759Z,6.43
2023-01-21T12:52:33.725Z,4.07
2023-01-21T12:55:08.817Z,4.50
2023-01-21T12:57:42.757Z,3.90
2023-01-21T13:00:19.503Z,6.43
2023-01-21T13:02:56.389Z,2.93
2023-01-21T13:05:30.537Z,4.03
2023-01-21T13:08:06.303Z,3.13
2023-01-21T13:10:37.933Z,4.53
2023-01-21T13:13:16.026Z,4.37
2023-01-21T13:15:46.330Z,3.77
2023-01-21T13:18:17.500Z,2.93
2023-01-21T13:20:53.390Z,5.00
2023-01-21T13:23:30.589Z,4.67
2023-01-21T13:26:04.243Z,4.07
2023-01-21T13:28:40.237Z,8.97
2023-01-21T13:31:16.159Z,15.60
2023-01-21T13:33:54.946Z,3.43
2023-01-21T13:36:37.375Z,4.20
2023-01-21T13:39:12.111Z,5.57
2023-01-21T13:41:54.828Z,5.67
2023-01-21T13:44:46.570Z,3.30
2023-01-21T13:47:26.868Z,4.97
2023-01-21T13:50:23.216Z,5.27
2023-01-21T13:53:21.161Z,5.33
2023-01-21T13:56:00.895Z,5.47
2023-01-21T13:58:36.254Z,4.20
2023-01-21T14:01:12.208Z,4.93
2023-01-21T14:03:45.042Z,4.10
2023-01-21T14:06:24.457Z,4.30
2023-01-21T14:08:57.695Z,5.37
2023-01-21T14:11:30.375Z,4.60
2023-01-21T14:14:34.242Z,4.13
2023-01-21T14:17:15.921Z,4.40
2023-01-21T14:20:01.368Z,4.33
2023-01-21T14:22:45.432Z,4.47
2023-01-21T14:25:30.850Z,4.20
2023-01-21T14:28:07.251Z,3.33
2023-01-21T14:30:43.006Z,4.07
2023-01-21T14:33:16.238Z,6.03
2023-01-21T14:35:48.922Z,4.60
2023-01-21T14:38:27.318Z,4.47
2023-01-21T14:41:05.725Z,4.63
2023-01-21T14:43:52.558Z,5.20
2023-01-21T14:46:28.883Z,5.40
2023-01-21T14:49:07.683Z,4.83
2023-01-21T14:51:43.931Z,5.80
2023-01-21T14:54:14.567Z,4.53
2023-01-21T14:56:54.241Z,5.17
2023-01-21T14:59:33.482Z,5.20
2023-01-21T15:02:02.339Z,5.40
2023-01-21T15:04:37.265Z,5.53
2023-01-21T15:07:11.026Z,5.80
2023-01-21T15:09:44.906Z,5.93
2023-01-21T15:12:17.135Z,5.40
2023-01-21T15:14:45.604Z,5.90
2023-01-21T15:17:47.132Z,5.43
2023-01-21T15:20:57.852Z,6.80
2023-01-21T15:23:38.108Z,5.80
2023-01-21T15:26:36.387Z,19.07
2023-01-21T15:29:33.636Z,6.33
2023-01-21T15:32:20.059Z,7.40
2023-01-21T15:34:51.110Z,6.20
2023-01-21T15:37:21.900Z,7.03
2023-01-21T15:39:52.162Z,16.77
2023-01-21T15:42:27.756Z,7.57
2023-01-21T15:45:06.321Z,5.40
2023-01-21T15:47:58.484Z,19.13
2023-01-21T15:50:31.367Z,7.67
2023-01-21T15:53:15.328Z,15.93
2023-01-21T15:56:03.141Z,8.17
2023-01-21T15:58:41.000Z,6.47
2023-01-21T16:01:18.968Z,8.40
2023-01-21T16:04:03.117Z,6.83
2023-01-21T16:06:39.443Z,8.23
2023-01-21T16:09:09.190Z,7.93
2023-01-21T16:11:53.694Z,9.43
2023-01-21T16:14:40.519Z,7.80
2023-01-21T16:17:17.719Z,9.10
2023-01-21T16:19:49.184Z,9.73
2023-01-21T16:22:21.830Z,8.83
2023-01-21T16:24:53.350Z,11.87
2023-01-21T16:27:24.991Z,12.40
2023-01-21T16:29:56.482Z,11.90
2023-01-21T16:32:24.345Z,11.67
2023-01-21T16:34:51.903Z,13.70
2023-01-21T16:37:21.497Z,15.37
2023-01-21T16:39:49.433Z,28.47
2023-01-21T16:42:27.332Z,12.87
2023-01-21T16:44:54.981Z,17.07
2023-01-21T16:47:25.682Z,12.67
2023-01-21T16:49:53.542Z,14.30
2023-01-21T16:52:23.789Z,10.87
2023-01-21T16:54:53.246Z,9.93
2023-01-21T16:57:31.651Z,17.83
2023-01-21T17:00:02.263Z,10.77
2023-01-21T17:02:31.753Z,10.80
2023-01-21T17:05:00.809Z,9.63
2023-01-21T17:07:31.146Z,10.73
2023-01-21T17:10:02.471Z,9.53
2023-01-21T17:12:34.610Z,9.93
2023-01-21T17:15:14.359Z,9.80
2023-01-21T17:17:41.982Z,9.03
2023-01-21T17:20:33.925Z,12.00
2023-01-21T17:23:04.432Z,11.73
2023-01-21T17:25:32.200Z,10.57
2023-01-21T17:28:01.038Z,11.40
2023-01-21T17:30:31.781Z,11.03
2023-01-21T17:33:00.638Z,10.00
2023-01-21T17:35:29.600Z,8.93
2023-01-21T17:37:59.315Z,11.20
2023-01-21T17:40:33.317Z,10.90
2023-01-21T17:43:15.178Z,13.10
2023-01-21T17:45:46.665Z,9.10
2023-01-21T17:48:23.866Z,10.17
2023-01-21T17:50:52.454Z,10.80
2023-01-21T17:53:23.560Z,12.77
2023-01-21T17:56:02.030Z,10.30
2023-01-21T17:58:46.596Z,12.63
2023-01-21T18:01:15.319Z,10.77
2023-01-21T18:03:42.869Z,10.40
2023-01-21T18:06:19.594Z,11.13
2023-01-21T18:08:47.223Z,10.47
2023-01-21T18:11:16.726Z,10.17
2023-01-21T18:13:45.605Z,10.20
2023-01-21T18:16:13.199Z,11.20
2023-01-21T18:18:41.055Z,9.50
2023-01-21T18:21:17.459Z,10.87
2023-01-21T18:23:44.993Z,14.30
2023-01-21T18:26:18.301Z,10.60
2023-01-21T18:28:47.135Z,11.63
2023-01-21T18:31:14.720Z,11.30
2023-01-21T18:33:42.238Z,11.10
2023-01-21T18:36:11.727Z,11.17
2023-01-21T18:38:39.234Z,10.43
2023-01-21T18:41:08.747Z,10.57
2023-01-21T18:43:36.329Z,12.10
2023-01-21T18:46:11.126Z,9.80
2023-01-21T18:48:38.647Z,11.80
2023-01-21T18:51:06.530Z,10.33
2023-01-21T18:53:34.003Z,10.57
2023-01-21T18:56:01.604Z,11.53
2023-01-21T18:58:29.200Z,15.13
2023-01-21T19:00:56.722Z,14.43
2023-01-21T19:03:25.619Z,13.97
2023-01-21T19:05:53.091Z,10.77
2023-01-21T19:08:24.628Z,11.07
2023-01-21T19:10:52.282Z,15.47
2023-01-21T19:13:19.807Z,12.83
2023-01-21T19:15:48.283Z,15.57
2023-01-21T19:18:17.373Z,13.50
2023-01-21T19:20:46.225Z,14.30
2023-01-21T19:23:16.176Z,9.63
2023-01-21T19:25:46.354Z,14.87
2023-01-21T19:28:13.869Z,17.33
2023-01-21T19:30:45.016Z,16.77
2023-01-21T19:33:13.220Z,17.83
2023-01-21T19:35:44.551Z,16.97
2023-01-21T19:38:17.135Z,16.43
2023-01-21T19:40:45.623Z,12.50
2023-01-21T19:43:14.381Z,18.90
2023-01-21T19:45:42.710Z,18.07
2023-01-21T19:48:13.086Z,17.57
2023-01-21T19:50:40.965Z,18.80
2023-01-21T19:53:10.381Z,18.20
2023-01-21T19:55:40.138Z,16.03
2023-01-21T19:58:17.722Z,16.77
2023-01-21T20:00:45.261Z,15.67
2023-01-21T20:03:13.566Z,14.47
2023-01-21T20:05:41.356Z,22.77
2023-01-21T20:08:12.347Z,18.80
2023-01-21T20:10:41.425Z,12.50
2023-01-21T20:13:12.804Z,15.77
2023-01-21T20:15:42.247Z,16.97
2023-01-21T20:18:18.289Z,15.77
2023-01-21T20:20:45.969Z,16.13
2023-01-21T20:23:15.023Z,17.27
2023-01-21T20:25:45.999Z,16.10
2023-01-21T20:28:19.251Z,11.20
2023-01-21T20:30:47.392Z,11.23
2023-01-21T20:33:17.748Z,12.53
2023-01-21T20:35:47.038Z,12.13
2023-01-21T20:38:17.236Z,11.97
2023-01-21T20:40:46.116Z,9.70
2023-01-21T20:43:13.702Z,12.37
2023-01-21T20:45:43.613Z,14.00
2023-01-21T20:48:18.747Z,11.03
2023-01-21T20:50:46.902Z,9.13
2023-01-21T20:53:15.110Z,9.67
2023-01-21T20:55:44.442Z,10.30
2023-01-21T20:58:14.482Z,8.40
2023-01-21T21:00:43.780Z,8.27
2023-01-21T21:03:11.828Z,9.77
2023-01-21T21:05:39.410Z,9.50
2023-01-21T21:08:06.887Z,9.00
2023-01-21T21:10:37.062Z,8.23
2023-01-21T21:13:05.325Z,9.70
2023-01-21T21:15:36.041Z,9.00
2023-01-21T21:18:04.139Z,8.63
2023-01-21T21:20:34.489Z,9.03
2023-01-21T21:23:02.312Z,8.90
2023-01-21T21:25:31.936Z,8.70
2023-01-21T21:27:59.465Z,8.33
2023-01-21T21:30:29.190Z,7.30
2023-01-21T21:32:59.451Z,8.50
2023-01-21T21:35:28.747Z,10.07
2023-01-21T21:37:57.822Z,9.43
2023-01-21T21:40:29.191Z,8.83
2023-01-21T21:43:14.525Z,8.63
2023-01-21T21:45:57.737Z,9.70
2023-01-21T21:48:43.357Z,9.33
2023-01-21T21:51:12.957Z,9.03
2023-01-21T21:53:41.642Z,8.53
2023-01-21T21:56:11.364Z,9.27
2023-01-21T21:58:38.859Z,10.10
2023-01-21T22:01:11.515Z,9.57
2023-01-21T22:03:41.055Z,8.50
2023-01-21T22:06:09.529Z,10.17
2023-01-21T22:08:38.443Z,10.60
2023-01-21T22:11:07.750Z,8.47
2023-01-21T22:13:40.045Z,9.17
2023-01-21T22:16:09.245Z,8.60
2023-01-21T22:18:36.752Z,10.00
2023-01-21T22:21:08.185Z,9.60
2023-01-21T22:23:37.873Z,9.50
2023-01-21T22:26:07.501Z,9.63
2023-01-21T22:28:35.668Z,10.00
2023-01-21T22:31:05.052Z,10.97
2023-01-21T22:33:32.879Z,11.17
2023-01-21T22:36:04.823Z,10.03
2023-01-21T22:38:34.337Z,10.20
2023-01-21T22:41:02.267Z,9.97
2023-01-21T22:43:30.297Z,10.30
2023-01-21T22:45:59.114Z,10.17
2023-01-21T22:48:27.762Z,9.10
2023-01-21T22:50:57.049Z,9.50
2023-01-21T22:53:26.714Z,10.60
2023-01-21T22:55:55.639Z,9.10
2023-01-21T22:58:23.332Z,10.17
2023-01-21T23:00:51.912Z,11.90
2023-01-21T23:03:20.332Z,11.43
2023-01-21T23:05:48.347Z,13.63
2023-01-21T23:08:16.882Z,11.40
2023-01-21T23:10:47.198Z,10.40
2023-01-21T23:13:15.879Z,11.90
2023-01-21T23:15:44.391Z,9.53
2023-01-21T23:18:14.128Z,11.20
2023-01-21T23:20:43.084Z,10.37
2023-01-21T23:23:12.220Z,11.00
2023-01-21T23:25:41.104Z,11.27
2023-01-21T23:28:09.999Z,11.03
2023-01-21T23:30:37.838Z,12.17
2023-01-21T23:33:05.526Z,11.80
2023-01-21T23:35:34.554Z,12.07
2023-01-21T23:38:02.917Z,12.13
2023-01-21T23:40:30.405Z,12.97
2023-01-21T23:42:57.912Z,11.67
2023-01-21T23:45:26.970Z,11.33
2023-01-21T23:47:55.107Z,15.00
2023-01-21T23:50:22.872Z,9.17
2023-01-21T23:52:50.347Z,9.47
2023-01-21T23:55:18.059Z,8.40
2023-01-21T23:57:45.543Z,7.17
